sensor_id;sensor_type;location;lat;lon;timestamp;pressure;altitude;pressure_sealevel;temperature;humidity
18749;BME280;9503;53.560;10.246;2023-06-22T00:02:25;101312.56;;;22.45;74.81
18749;BME280;9503;53.560;10.246;2023-06-22T00:04:52;101315.31;;;22.62;73.86
18749;BME280;9503;53.560;10.246;2023-06-22T00:07:18;101317.84;;;22.54;74.35
18749;BME280;9503;53.560;10.246;2023-06-22T00:09:46;101323.00;;;22.44;74.82
18749;BME280;9503;53.560;10.246;2023-06-22T00:12:13;101316.97;;;22.52;74.33
18749;BME280;9503;53.560;10.246;2023-06-22T00:14:39;101312.47;;;22.34;75.03
18749;BME280;9503;53.560;10.246;2023-06-22T00:17:06;101309.00;;;22.39;75.08
18749;BME280;9503;53.560;10.246;2023-06-22T00:19:33;101309.94;;;22.47;74.88
18749;BME280;9503;53.560;10.246;2023-06-22T00:22:00;101306.31;;;22.26;75.85
18749;BME280;9503;53.560;10.246;2023-06-22T00:24:28;101305.47;;;22.32;75.63
18749;BME280;9503;53.560;10.246;2023-06-22T00:26:56;101305.47;;;22.30;75.82
18749;BME280;9503;53.560;10.246;2023-06-22T00:29:23;101300.22;;;22.30;75.97
18749;BME280;9503;53.560;10.246;2023-06-22T00:31:49;101295.06;;;22.35;75.62
18749;BME280;9503;53.560;10.246;2023-06-22T00:34:16;101294.06;;;22.21;76.25
18749;BME280;9503;53.560;10.246;2023-06-22T00:36:43;101300.09;;;22.15;76.26
18749;BME280;9503;53.560;10.246;2023-06-22T00:39:09;101308.81;;;22.16;76.35
18749;BME280;9503;53.560;10.246;2023-06-22T00:41:36;101313.22;;;22.21;75.86
18749;BME280;9503;53.560;10.246;2023-06-22T00:44:04;101322.13;;;22.40;75.47
18749;BME280;9503;53.560;10.246;2023-06-22T00:46:32;101323.13;;;22.56;74.91
18749;BME280;9503;53.560;10.246;2023-06-22T00:48:59;101326.56;;;22.53;75.03
18749;BME280;9503;53.560;10.246;2023-06-22T00:51:26;101328.31;;;22.51;75.55
18749;BME280;9503;53.560;10.246;2023-06-22T00:53:52;101332.66;;;22.52;76.00
18749;BME280;9503;53.560;10.246;2023-06-22T00:56:19;101325.75;;;22.56;76.11
18749;BME280;9503;53.560;10.246;2023-06-22T00:58:50;101326.63;;;22.59;76.27
18749;BME280;9503;53.560;10.246;2023-06-22T01:01:19;101327.66;;;22.77;75.73
18749;BME280;9503;53.560;10.246;2023-06-22T01:03:49;101327.59;;;22.71;75.67
18749;BME280;9503;53.560;10.246;2023-06-22T01:06:19;101322.34;;;22.68;75.81
18749;BME280;9503;53.560;10.246;2023-06-22T01:08:57;101322.31;;;22.63;75.70
18749;BME280;9503;53.560;10.246;2023-06-22T01:11:31;101321.41;;;22.59;76.01
18749;BME280;9503;53.560;10.246;2023-06-22T01:14:03;101321.38;;;22.58;75.99
18749;BME280;9503;53.560;10.246;2023-06-22T01:16:34;101324.88;;;22.58;75.94
18749;BME280;9503;53.560;10.246;2023-06-22T01:19:06;101317.84;;;22.51;76.08
18749;BME280;9503;53.560;10.246;2023-06-22T01:21:36;101319.66;;;22.58;76.16
18749;BME280;9503;53.560;10.246;2023-06-22T01:24:14;101324.00;;;22.56;75.91
18749;BME280;9503;53.560;10.246;2023-06-22T01:26:45;101320.53;;;22.57;76.00
18749;BME280;9503;53.560;10.246;2023-06-22T01:29:21;101312.50;;;22.38;76.75
18749;BME280;9503;53.560;10.246;2023-06-22T01:31:49;101311.75;;;22.51;75.96
18749;BME280;9503;53.560;10.246;2023-06-22T01:34:17;101311.81;;;22.58;75.66
18749;BME280;9503;53.560;10.246;2023-06-22T01:36:44;101305.75;;;22.63;74.90
18749;BME280;9503;53.560;10.246;2023-06-22T01:39:12;101301.22;;;22.45;75.23
18749;BME280;9503;53.560;10.246;2023-06-22T01:41:41;101313.31;;;22.32;75.56
18749;BME280;9503;53.560;10.246;2023-06-22T01:44:09;101305.38;;;22.20;76.36
18749;BME280;9503;53.560;10.246;2023-06-22T01:46:38;101305.53;;;22.38;75.41
18749;BME280;9503;53.560;10.246;2023-06-22T01:49:06;101311.63;;;22.36;75.30
18749;BME280;9503;53.560;10.246;2023-06-22T01:51:33;101307.13;;;22.21;75.91
18749;BME280;9503;53.560;10.246;2023-06-22T01:54:00;101302.69;;;22.14;76.33
18749;BME280;9503;53.560;10.246;2023-06-22T01:56:27;101306.16;;;22.13;76.28
18749;BME280;9503;53.560;10.246;2023-06-22T01:58:59;101312.28;;;22.16;76.02
18749;BME280;9503;53.560;10.246;2023-06-22T02:01:31;101314.00;;;22.11;76.21
18749;BME280;9503;53.560;10.246;2023-06-22T02:04:06;101310.47;;;22.11;76.03
18749;BME280;9503;53.560;10.246;2023-06-22T02:06:37;101313.03;;;22.04;76.32
18749;BME280;9503;53.560;10.246;2023-06-22T02:09:08;101312.16;;;22.05;76.39
18749;BME280;9503;53.560;10.246;2023-06-22T02:11:36;101311.41;;;22.14;75.64
18749;BME280;9503;53.560;10.246;2023-06-22T02:16:31;101317.22;;;21.89;76.44
18749;BME280;9503;53.560;10.246;2023-06-22T02:19:01;101309.31;;;21.84;76.42
18749;BME280;9503;53.560;10.246;2023-06-22T02:21:30;101311.91;;;21.84;76.49
18749;BME280;9503;53.560;10.246;2023-06-22T02:23:57;101307.56;;;21.85;76.45
18749;BME280;9503;53.560;10.246;2023-06-22T02:26:24;101313.59;;;21.80;76.39
18749;BME280;9503;53.560;10.246;2023-06-22T02:28:51;101312.63;;;21.71;76.63
18749;BME280;9503;53.560;10.246;2023-06-22T02:31:18;101310.00;;;21.69;76.80
18749;BME280;9503;53.560;10.246;2023-06-22T02:33:45;101304.78;;;21.69;76.54
18749;BME280;9503;53.560;10.246;2023-06-22T02:36:11;101289.13;;;21.68;76.86
18749;BME280;9503;53.560;10.246;2023-06-22T02:38:40;101287.31;;;21.62;77.07
18749;BME280;9503;53.560;10.246;2023-06-22T02:41:14;101280.25;;;21.57;77.74
18749;BME280;9503;53.560;10.246;2023-06-22T02:43:43;101295.94;;;21.58;77.75
18749;BME280;9503;53.560;10.246;2023-06-22T02:46:10;101295.91;;;21.57;77.49
18749;BME280;9503;53.560;10.246;2023-06-22T02:48:38;101299.38;;;21.54;77.18
18749;BME280;9503;53.560;10.246;2023-06-22T02:51:04;101297.59;;;21.51;77.67
18749;BME280;9503;53.560;10.246;2023-06-22T02:53:31;101301.03;;;21.46;78.25
18749;BME280;9503;53.560;10.246;2023-06-22T02:56:00;101293.28;;;21.52;78.00
18749;BME280;9503;53.560;10.246;2023-06-22T02:58:27;101301.03;;;21.47;78.10
18749;BME280;9503;53.560;10.246;2023-06-22T03:00:54;101294.94;;;21.45;78.38
18749;BME280;9503;53.560;10.246;2023-06-22T03:03:20;101295.75;;;21.43;78.20
18749;BME280;9503;53.560;10.246;2023-06-22T03:05:47;101300.16;;;21.47;77.91
18749;BME280;9503;53.560;10.246;2023-06-22T03:08:14;101299.28;;;21.46;78.11
18749;BME280;9503;53.560;10.246;2023-06-22T03:10:40;101303.66;;;21.50;77.73
18749;BME280;9503;53.560;10.246;2023-06-22T03:13:08;101302.72;;;21.44;77.96
18749;BME280;9503;53.560;10.246;2023-06-22T03:15:35;101301.09;;;21.52;77.89
18749;BME280;9503;53.560;10.246;2023-06-22T03:18:01;101303.66;;;21.47;77.84
18749;BME280;9503;53.560;10.246;2023-06-22T03:20:28;101300.25;;;21.53;77.91
18749;BME280;9503;53.560;10.246;2023-06-22T03:22:59;101307.25;;;21.59;77.77
18749;BME280;9503;53.560;10.246;2023-06-22T03:25:25;101305.50;;;21.59;77.82
18749;BME280;9503;53.560;10.246;2023-06-22T03:27:52;101298.63;;;21.63;77.99
18749;BME280;9503;53.560;10.246;2023-06-22T03:30:21;101310.16;;;21.82;77.39
18749;BME280;9503;53.560;10.246;2023-06-22T03:32:48;101316.41;;;21.97;76.68
18749;BME280;9503;53.560;10.246;2023-06-22T03:35:14;101318.16;;;21.97;76.61
18749;BME280;9503;53.560;10.246;2023-06-22T03:37:41;101320.72;;;21.95;76.65
18749;BME280;9503;53.560;10.246;2023-06-22T03:40:08;101320.97;;;22.12;76.10
18749;BME280;9503;53.560;10.246;2023-06-22T03:42:35;101327.22;;;22.31;75.80
18749;BME280;9503;53.560;10.246;2023-06-22T03:45:02;101327.41;;;22.49;75.43
18749;BME280;9503;53.560;10.246;2023-06-22T03:47:31;101328.38;;;22.59;75.02
18749;BME280;9503;53.560;10.246;2023-06-22T03:49:58;101334.59;;;22.73;74.59
18749;BME280;9503;53.560;10.246;2023-06-22T03:52:24;101334.78;;;22.95;74.56
18749;BME280;9503;53.560;10.246;2023-06-22T03:54:51;101334.06;;;23.17;74.05
18749;BME280;9503;53.560;10.246;2023-06-22T03:57:18;101339.38;;;23.32;73.03
18749;BME280;9503;53.560;10.246;2023-06-22T03:59:44;101345.50;;;23.33;71.79
18749;BME280;9503;53.560;10.246;2023-06-22T04:02:11;101342.94;;;23.48;71.31
18749;BME280;9503;53.560;10.246;2023-06-22T04:04:39;101350.03;;;23.61;71.04
18749;BME280;9503;53.560;10.246;2023-06-22T04:07:05;101347.53;;;23.92;70.10
18749;BME280;9503;53.560;10.246;2023-06-22T04:09:33;101351.97;;;24.14;69.36
18749;BME280;9503;53.560;10.246;2023-06-22T04:12:00;101354.66;;;24.37;68.36
18749;BME280;9503;53.560;10.246;2023-06-22T04:14:27;101357.25;;;24.25;68.08
18749;BME280;9503;53.560;10.246;2023-06-22T04:16:53;101354.59;;;24.22;68.19
18749;BME280;9503;53.560;10.246;2023-06-22T04:19:35;101360.78;;;24.38;67.90
18749;BME280;9503;53.560;10.246;2023-06-22T04:25:12;101365.13;;;25.38;65.94
18749;BME280;9503;53.560;10.246;2023-06-22T04:27:39;101369.47;;;25.53;64.65
18749;BME280;9503;53.560;10.246;2023-06-22T04:30:07;101369.47;;;25.59;64.13
18749;BME280;9503;53.560;10.246;2023-06-22T04:32:34;101368.50;;;25.84;64.24
18749;BME280;9503;53.560;10.246;2023-06-22T04:35:02;101366.69;;;25.99;63.43
18749;BME280;9503;53.560;10.246;2023-06-22T04:37:29;101371.94;;;26.03;63.52
18749;BME280;9503;53.560;10.246;2023-06-22T04:39:56;101367.59;;;25.90;63.78
18749;BME280;9503;53.560;10.246;2023-06-22T04:42:25;101364.06;;;25.99;64.02
18749;BME280;9503;53.560;10.246;2023-06-22T04:44:52;101367.50;;;26.11;63.46
18749;BME280;9503;53.560;10.246;2023-06-22T04:47:19;101370.13;;;26.10;62.98
18749;BME280;9503;53.560;10.246;2023-06-22T04:49:46;101371.91;;;26.09;63.71
18749;BME280;9503;53.560;10.246;2023-06-22T04:52:13;101364.91;;;26.04;63.64
18749;BME280;9503;53.560;10.246;2023-06-22T04:54:45;101362.44;;;25.61;64.24
18749;BME280;9503;53.560;10.246;2023-06-22T04:57:14;101355.59;;;25.06;65.73
18749;BME280;9503;53.560;10.246;2023-06-22T04:59:42;101355.53;;;25.19;65.79
18749;BME280;9503;53.560;10.246;2023-06-22T05:02:10;101358.91;;;25.71;65.34
18749;BME280;9503;53.560;10.246;2023-06-22T05:04:37;101357.97;;;25.95;64.66
18749;BME280;9503;53.560;10.246;2023-06-22T05:07:04;101364.94;;;25.96;63.98
18749;BME280;9503;53.560;10.246;2023-06-22T05:09:31;101368.38;;;26.10;64.12
18749;BME280;9503;53.560;10.246;2023-06-22T05:11:59;101363.69;;;26.63;63.49
18749;BME280;9503;53.560;10.246;2023-06-22T05:14:28;101375.84;;;26.73;62.92
18749;BME280;9503;53.560;10.246;2023-06-22T05:16:56;101376.63;;;26.86;62.22
18749;BME280;9503;53.560;10.246;2023-06-22T05:19:24;101377.47;;;26.92;61.25
18749;BME280;9503;53.560;10.246;2023-06-22T05:21:56;101374.75;;;27.03;61.51
18749;BME280;9503;53.560;10.246;2023-06-22T05:24:23;101372.88;;;27.16;61.46
18749;BME280;9503;53.560;10.246;2023-06-22T05:26:50;101377.81;;;27.48;60.48
18749;BME280;9503;53.560;10.246;2023-06-22T05:29:16;101378.09;;;28.00;59.03
18749;BME280;9503;53.560;10.246;2023-06-22T05:31:43;101380.84;;;27.91;58.75
18749;BME280;9503;53.560;10.246;2023-06-22T05:34:11;101379.81;;;28.65;56.18
18749;BME280;9503;53.560;10.246;2023-06-22T05:36:37;101384.41;;;28.52;56.84
18749;BME280;9503;53.560;10.246;2023-06-22T05:39:11;101378.00;;;28.67;56.35
18749;BME280;9503;53.560;10.246;2023-06-22T05:41:39;101378.16;;;28.57;56.38
18749;BME280;9503;53.560;10.246;2023-06-22T05:44:05;101381.38;;;28.16;57.00
18749;BME280;9503;53.560;10.246;2023-06-22T05:46:32;101385.53;;;27.65;58.05
18749;BME280;9503;53.560;10.246;2023-06-22T05:48:59;101372.94;;;27.10;59.82
18749;BME280;9503;53.560;10.246;2023-06-22T05:51:27;101380.38;;;27.56;58.64
18749;BME280;9503;53.560;10.246;2023-06-22T05:53:53;101375.31;;;28.09;57.61
18749;BME280;9503;53.560;10.246;2023-06-22T05:56:20;101383.94;;;28.22;57.69
18749;BME280;9503;53.560;10.246;2023-06-22T05:58:46;101373.13;;;28.41;57.15
18749;BME280;9503;53.560;10.246;2023-06-22T06:01:13;101371.31;;;27.79;58.57
18749;BME280;9503;53.560;10.246;2023-06-22T06:03:40;101376.06;;;28.21;58.07
18749;BME280;9503;53.560;10.246;2023-06-22T06:06:07;101375.09;;;28.83;57.36
18749;BME280;9503;53.560;10.246;2023-06-22T06:08:35;101377.09;;;28.68;57.58
18749;BME280;9503;53.560;10.246;2023-06-22T06:11:02;101375.50;;;29.11;55.74
18749;BME280;9503;53.560;10.246;2023-06-22T06:13:28;101369.09;;;28.74;56.67
18749;BME280;9503;53.560;10.246;2023-06-22T06:15:56;101367.25;;;28.77;54.67
18749;BME280;9503;53.560;10.246;2023-06-22T06:18:23;101369.28;;;28.61;55.18
18749;BME280;9503;53.560;10.246;2023-06-22T06:20:49;101369.50;;;27.83;55.72
18749;BME280;9503;53.560;10.246;2023-06-22T06:23:16;101372.53;;;28.19;54.78
18749;BME280;9503;53.560;10.246;2023-06-22T06:25:44;101372.03;;;28.55;54.81
18749;BME280;9503;53.560;10.246;2023-06-22T06:28:10;101369.53;;;29.02;53.41
18749;BME280;9503;53.560;10.246;2023-06-22T06:30:37;101367.59;;;29.11;52.56
18749;BME280;9503;53.560;10.246;2023-06-22T06:33:04;101369.00;;;28.80;53.31
18749;BME280;9503;53.560;10.246;2023-06-22T06:35:34;101371.69;;;28.75;52.39
18749;BME280;9503;53.560;10.246;2023-06-22T06:38:00;101368.66;;;29.00;52.98
18749;BME280;9503;53.560;10.246;2023-06-22T06:40:27;101372.50;;;29.30;52.65
18749;BME280;9503;53.560;10.246;2023-06-22T06:42:55;101368.13;;;29.29;53.04
18749;BME280;9503;53.560;10.246;2023-06-22T06:45:23;101365.44;;;29.77;52.67
18749;BME280;9503;53.560;10.246;2023-06-22T06:47:51;101372.94;;;30.37;51.11
18749;BME280;9503;53.560;10.246;2023-06-22T06:50:18;101369.28;;;30.42;50.92
18749;BME280;9503;53.560;10.246;2023-06-22T06:52:45;101372.03;;;30.38;52.34
18749;BME280;9503;53.560;10.246;2023-06-22T06:55:11;101364.13;;;29.96;51.84
18749;BME280;9503;53.560;10.246;2023-06-22T06:57:39;101370.53;;;30.26;51.51
18749;BME280;9503;53.560;10.246;2023-06-22T07:00:09;101358.13;;;30.30;51.57
18749;BME280;9503;53.560;10.246;2023-06-22T07:02:38;101349.94;;;29.58;53.23
18749;BME280;9503;53.560;10.246;2023-06-22T07:05:05;101354.91;;;29.29;53.99
18749;BME280;9503;53.560;10.246;2023-06-22T07:07:33;101350.78;;;29.14;54.28
18749;BME280;9503;53.560;10.246;2023-06-22T07:09:59;101349.53;;;29.35;53.93
18749;BME280;9503;53.560;10.246;2023-06-22T07:12:26;101354.56;;;30.31;52.25
18749;BME280;9503;53.560;10.246;2023-06-22T07:14:53;101354.88;;;30.17;52.12
18749;BME280;9503;53.560;10.246;2023-06-22T07:17:21;101354.41;;;29.56;53.75
18749;BME280;9503;53.560;10.246;2023-06-22T07:19:47;101353.28;;;30.10;52.08
18749;BME280;9503;53.560;10.246;2023-06-22T07:22:14;101350.91;;;29.96;53.78
18749;BME280;9503;53.560;10.246;2023-06-22T07:24:40;101356.31;;;29.91;53.06
18749;BME280;9503;53.560;10.246;2023-06-22T07:27:07;101364.38;;;30.27;52.84
18749;BME280;9503;53.560;10.246;2023-06-22T07:29:36;101359.94;;;30.27;51.92
18749;BME280;9503;53.560;10.246;2023-06-22T07:32:05;101359.25;;;30.55;52.04
18749;BME280;9503;53.560;10.246;2023-06-22T07:34:33;101350.78;;;30.78;51.52
18749;BME280;9503;53.560;10.246;2023-06-22T07:37:00;101363.66;;;30.56;51.12
18749;BME280;9503;53.560;10.246;2023-06-22T07:39:27;101359.06;;;30.63;50.88
18749;BME280;9503;53.560;10.246;2023-06-22T07:41:54;101360.63;;;31.05;49.51
18749;BME280;9503;53.560;10.246;2023-06-22T07:44:20;101357.44;;;30.21;51.28
18749;BME280;9503;53.560;10.246;2023-06-22T07:46:47;101358.84;;;30.73;50.70
18749;BME280;9503;53.560;10.246;2023-06-22T07:49:20;101358.28;;;31.29;50.53
18749;BME280;9503;53.560;10.246;2023-06-22T07:51:50;101356.84;;;31.79;49.89
18749;BME280;9503;53.560;10.246;2023-06-22T07:54:16;101365.88;;;32.02;49.45
18749;BME280;9503;53.560;10.246;2023-06-22T07:56:43;101367.66;;;32.03;49.54
18749;BME280;9503;53.560;10.246;2023-06-22T07:59:09;101367.66;;;32.01;49.12
18749;BME280;9503;53.560;10.246;2023-06-22T08:01:36;101356.59;;;32.44;48.04
18749;BME280;9503;53.560;10.246;2023-06-22T08:04:03;101362.13;;;32.09;48.75
18749;BME280;9503;53.560;10.246;2023-06-22T08:06:31;101365.22;;;31.95;48.85
18749;BME280;9503;53.560;10.246;2023-06-22T08:08:59;101359.56;;;31.76;49.43
18749;BME280;9503;53.560;10.246;2023-06-22T08:11:25;101358.84;;;32.29;48.52
18749;BME280;9503;53.560;10.246;2023-06-22T08:13:52;101355.25;;;32.86;48.06
18749;BME280;9503;53.560;10.246;2023-06-22T08:16:21;101365.00;;;32.85;47.99
18749;BME280;9503;53.560;10.246;2023-06-22T08:18:47;101360.31;;;32.93;48.39
18749;BME280;9503;53.560;10.246;2023-06-22T08:21:14;101356.75;;;33.18;46.95
18749;BME280;9503;53.560;10.246;2023-06-22T08:23:41;101349.97;;;32.84;48.45
18749;BME280;9503;53.560;10.246;2023-06-22T08:26:09;101350.91;;;31.70;50.12
18749;BME280;9503;53.560;10.246;2023-06-22T08:28:35;101355.78;;;31.85;49.50
18749;BME280;9503;53.560;10.246;2023-06-22T08:31:02;101355.25;;;31.72;49.35
18749;BME280;9503;53.560;10.246;2023-06-22T08:33:29;101358.88;;;32.57;48.23
18749;BME280;9503;53.560;10.246;2023-06-22T08:35:57;101352.44;;;32.64;48.01
18749;BME280;9503;53.560;10.246;2023-06-22T08:38:24;101355.59;;;32.49;48.79
18749;BME280;9503;53.560;10.246;2023-06-22T08:40:51;101349.81;;;31.77;49.78
18749;BME280;9503;53.560;10.246;2023-06-22T08:43:19;101343.09;;;31.65;49.59
18749;BME280;9503;53.560;10.246;2023-06-22T08:45:45;101339.28;;;32.05;48.71
18749;BME280;9503;53.560;10.246;2023-06-22T08:48:12;101347.19;;;32.06;48.63
18749;BME280;9503;53.560;10.246;2023-06-22T08:50:38;101350.50;;;32.13;47.93
18749;BME280;9503;53.560;10.246;2023-06-22T08:53:06;101342.16;;;32.25;47.65
18749;BME280;9503;53.560;10.246;2023-06-22T08:55:33;101345.25;;;32.11;48.45
18749;BME280;9503;53.560;10.246;2023-06-22T08:58:00;101335.56;;;32.10;48.57
18749;BME280;9503;53.560;10.246;2023-06-22T09:00:28;101341.13;;;32.03;48.85
18749;BME280;9503;53.560;10.246;2023-06-22T09:02:54;101321.84;;;31.35;49.89
18749;BME280;9503;53.560;10.246;2023-06-22T09:05:24;101324.09;;;31.18;49.35
18749;BME280;9503;53.560;10.246;2023-06-22T09:07:51;101328.19;;;31.61;48.29
18749;BME280;9503;53.560;10.246;2023-06-22T09:10:18;101329.34;;;31.52;49.34
18749;BME280;9503;53.560;10.246;2023-06-22T09:12:45;101327.44;;;32.15;49.41
18749;BME280;9503;53.560;10.246;2023-06-22T09:15:12;101322.13;;;32.15;48.15
18749;BME280;9503;53.560;10.246;2023-06-22T09:17:40;101328.25;;;32.45;48.24
18749;BME280;9503;53.560;10.246;2023-06-22T09:20:08;101312.91;;;32.27;47.90
18749;BME280;9503;53.560;10.246;2023-06-22T09:22:36;101321.25;;;31.88;49.34
18749;BME280;9503;53.560;10.246;2023-06-22T09:25:03;101316.38;;;31.42;50.16
18749;BME280;9503;53.560;10.246;2023-06-22T09:27:30;101312.13;;;32.23;47.96
18749;BME280;9503;53.560;10.246;2023-06-22T09:29:57;101313.47;;;32.89;47.15
18749;BME280;9503;53.560;10.246;2023-06-22T09:32:24;101307.84;;;33.23;47.42
18749;BME280;9503;53.560;10.246;2023-06-22T09:34:52;101296.31;;;32.48;47.90
18749;BME280;9503;53.560;10.246;2023-06-22T09:37:19;101304.78;;;32.33;48.04
18749;BME280;9503;53.560;10.246;2023-06-22T09:39:46;101310.25;;;32.80;47.58
18749;BME280;9503;53.560;10.246;2023-06-22T09:42:12;101306.91;;;33.49;46.41
18749;BME280;9503;53.560;10.246;2023-06-22T09:44:47;101304.19;;;33.96;45.41
18749;BME280;9503;53.560;10.246;2023-06-22T09:47:14;101299.88;;;34.16;44.84
18749;BME280;9503;53.560;10.246;2023-06-22T09:49:40;101298.94;;;34.17;45.12
18749;BME280;9503;53.560;10.246;2023-06-22T09:52:07;101284.78;;;32.21;47.66
18749;BME280;9503;53.560;10.246;2023-06-22T09:54:34;101288.72;;;33.12;46.88
18749;BME280;9503;53.560;10.246;2023-06-22T09:57:00;101286.44;;;33.26;46.55
18749;BME280;9503;53.560;10.246;2023-06-22T09:59:27;101280.19;;;33.04;46.55
18749;BME280;9503;53.560;10.246;2023-06-22T10:01:55;101289.47;;;34.10;46.21
18749;BME280;9503;53.560;10.246;2023-06-22T10:04:22;101291.78;;;33.73;46.04
18749;BME280;9503;53.560;10.246;2023-06-22T10:06:48;101285.06;;;34.30;45.30
18749;BME280;9503;53.560;10.246;2023-06-22T10:09:15;101281.84;;;35.05;44.59
18749;BME280;9503;53.560;10.246;2023-06-22T10:11:42;101286.06;;;36.05;42.70
18749;BME280;9503;53.560;10.246;2023-06-22T10:14:08;101277.03;;;36.44;41.39
18749;BME280;9503;53.560;10.246;2023-06-22T10:16:36;101280.78;;;37.25;40.00
18749;BME280;9503;53.560;10.246;2023-06-22T10:19:04;101277.63;;;37.50;40.75
18749;BME280;9503;53.560;10.246;2023-06-22T10:21:30;101279.66;;;36.78;41.52
18749;BME280;9503;53.560;10.246;2023-06-22T10:23:58;101278.69;;;36.10;42.09
18749;BME280;9503;53.560;10.246;2023-06-22T10:26:27;101271.34;;;36.33;41.50
18749;BME280;9503;53.560;10.246;2023-06-22T10:28:54;101274.84;;;36.52;41.38
18749;BME280;9503;53.560;10.246;2023-06-22T10:31:21;101269.34;;;36.19;41.85
18749;BME280;9503;53.560;10.246;2023-06-22T10:33:48;101267.78;;;37.34;40.69
18749;BME280;9503;53.560;10.246;2023-06-22T10:36:16;101262.63;;;36.64;41.42
18749;BME280;9503;53.560;10.246;2023-06-22T10:38:43;101270.03;;;37.89;40.19
18749;BME280;9503;53.560;10.246;2023-06-22T10:41:09;101267.47;;;38.18;39.38
18749;BME280;9503;53.560;10.246;2023-06-22T10:43:36;101268.03;;;38.69;38.85
18749;BME280;9503;53.560;10.246;2023-06-22T10:46:02;101256.94;;;37.20;40.16
18749;BME280;9503;53.560;10.246;2023-06-22T10:48:29;101252.00;;;36.97;40.17
18749;BME280;9503;53.560;10.246;2023-06-22T10:50:56;101250.69;;;36.88;40.69
18749;BME280;9503;53.560;10.246;2023-06-22T10:53:24;101250.59;;;36.90;41.52
18749;BME280;9503;53.560;10.246;2023-06-22T10:55:50;101255.38;;;37.81;40.30
18749;BME280;9503;53.560;10.246;2023-06-22T10:58:18;101242.41;;;36.93;40.50
18749;BME280;9503;53.560;10.246;2023-06-22T11:00:45;101244.41;;;36.55;41.46
18749;BME280;9503;53.560;10.246;2023-06-22T11:03:12;101241.03;;;37.01;40.56
18749;BME280;9503;53.560;10.246;2023-06-22T11:05:39;101242.16;;;36.28;41.64
18749;BME280;9503;53.560;10.246;2023-06-22T11:08:06;101239.00;;;36.39;42.01
18749;BME280;9503;53.560;10.246;2023-06-22T11:10:34;101236.22;;;36.23;42.04
18749;BME280;9503;53.560;10.246;2023-06-22T11:13:01;101241.00;;;37.19;40.83
18749;BME280;9503;53.560;10.246;2023-06-22T11:15:29;101235.78;;;37.80;40.61
18749;BME280;9503;53.560;10.246;2023-06-22T11:17:56;101233.63;;;38.17;41.00
18749;BME280;9503;53.560;10.246;2023-06-22T11:20:22;101233.16;;;38.69;39.27
18749;BME280;9503;53.560;10.246;2023-06-22T11:22:49;101228.03;;;39.09;39.66
18749;BME280;9503;53.560;10.246;2023-06-22T11:25:15;101223.44;;;39.11;39.00
18749;BME280;9503;53.560;10.246;2023-06-22T11:27:43;101227.06;;;39.38;38.85
18749;BME280;9503;53.560;10.246;2023-06-22T11:30:10;101222.66;;;38.66;40.04
18749;BME280;9503;53.560;10.246;2023-06-22T11:32:37;101214.59;;;37.92;41.14
18749;BME280;9503;53.560;10.246;2023-06-22T11:35:04;101220.22;;;37.87;40.66
18749;BME280;9503;53.560;10.246;2023-06-22T11:37:31;101228.47;;;37.19;41.21
18749;BME280;9503;53.560;10.246;2023-06-22T11:39:58;101214.66;;;36.78;41.30
18749;BME280;9503;53.560;10.246;2023-06-22T11:42:24;101213.06;;;36.41;41.94
18749;BME280;9503;53.560;10.246;2023-06-22T11:44:52;101209.72;;;36.88;42.01
18749;BME280;9503;53.560;10.246;2023-06-22T11:47:19;101211.03;;;36.79;42.41
18749;BME280;9503;53.560;10.246;2023-06-22T11:49:46;101206.78;;;37.08;41.04
18749;BME280;9503;53.560;10.246;2023-06-22T11:52:12;101209.13;;;37.30;42.54
18749;BME280;9503;53.560;10.246;2023-06-22T11:54:39;101196.63;;;36.48;41.84
18749;BME280;9503;53.560;10.246;2023-06-22T11:57:06;101206.22;;;37.66;41.66
18749;BME280;9503;53.560;10.246;2023-06-22T11:59:33;101199.19;;;37.00;42.37
18749;BME280;9503;53.560;10.246;2023-06-22T12:02:01;101193.44;;;35.88;43.62
18749;BME280;9503;53.560;10.246;2023-06-22T12:04:29;101192.28;;;36.11;43.79
18749;BME280;9503;53.560;10.246;2023-06-22T12:06:55;101187.31;;;35.86;43.19
18749;BME280;9503;53.560;10.246;2023-06-22T12:09:23;101188.84;;;36.77;42.84
18749;BME280;9503;53.560;10.246;2023-06-22T12:11:50;101176.75;;;36.37;42.88
18749;BME280;9503;53.560;10.246;2023-06-22T12:14:17;101178.31;;;36.91;43.02
18749;BME280;9503;53.560;10.246;2023-06-22T12:16:43;101167.59;;;35.71;44.03
18749;BME280;9503;53.560;10.246;2023-06-22T12:19:12;101177.84;;;36.15;44.24
18749;BME280;9503;53.560;10.246;2023-06-22T12:21:38;101168.53;;;36.57;42.24
18749;BME280;9503;53.560;10.246;2023-06-22T12:24:06;101158.94;;;37.35;42.09
18749;BME280;9503;53.560;10.246;2023-06-22T12:26:32;101157.53;;;37.28;41.72
18749;BME280;9503;53.560;10.246;2023-06-22T12:28:59;101158.81;;;38.14;40.75
18749;BME280;9503;53.560;10.246;2023-06-22T12:31:26;101157.16;;;37.81;41.08
18749;BME280;9503;53.560;10.246;2023-06-22T12:33:52;101154.31;;;38.14;40.65
18749;BME280;9503;53.560;10.246;2023-06-22T12:36:20;101155.88;;;38.03;40.50
18749;BME280;9503;53.560;10.246;2023-06-22T12:38:47;101142.03;;;38.83;39.24
18749;BME280;9503;53.560;10.246;2023-06-22T12:41:14;101145.50;;;39.12;38.84
18749;BME280;9503;53.560;10.246;2023-06-22T12:43:40;101144.19;;;38.34;40.64
18749;BME280;9503;53.560;10.246;2023-06-22T12:46:07;101140.13;;;38.57;39.88
18749;BME280;9503;53.560;10.246;2023-06-22T12:48:34;101150.16;;;36.84;41.91
18749;BME280;9503;53.560;10.246;2023-06-22T12:51:06;101142.88;;;37.19;41.94
18749;BME280;9503;53.560;10.246;2023-06-22T12:53:34;101142.72;;;37.38;41.62
18749;BME280;9503;53.560;10.246;2023-06-22T12:56:01;101138.09;;;37.72;41.44
18749;BME280;9503;53.560;10.246;2023-06-22T12:58:28;101128.19;;;37.26;42.31